Time;durP1;ratioP1;P1;durP2;ratioP2;P2;SDS_P1;SDS_P2;PMS_P1;PMS_P2;Temp;Humidity;BMP_temperature;BMP_pressure;BME280_temperature;BME280_humidity;BME280_pressure;Samples;Min_cycle;Max_cycle;Signal;HPM_P1;HPM_P2
2021/12/26 00:02:13;;;;;;;;;;;;;;;;;;;;;
2021/12/26 00:08:16;;;;;;;21.38;13.63;;;;;;;-14.14;69.40;98813.13;4956710;28;20432;-72
2021/12/26 00:10:42;;;;;;;21.83;13.83;;;;;;;-13.64;69.78;98897.38;5084759;28;20040;-74
2021/12/26 00:13:08;;;;;;;20.70;14.00;;;;;;;-13.52;69.92;98905.44;5095885;28;20028;-73
2021/12/26 00:15:33;;;;;;;12.70;9.80;;;;;;;-13.55;69.28;98907.28;5095481;28;20024;-72
2021/12/26 00:17:59;;;;;;;20.37;12.83;;;;;;;-14.61;69.80;98777.38;5095917;28;20046;-72
2021/12/26 00:20:26;;;;;;;17.63;13.10;;;;;;;-13.65;70.44;98926.41;5094640;28;20032;-73
2021/12/26 00:22:52;;;;;;;25.08;15.27;;;;;;;-13.57;70.27;98939.78;5095488;28;20491;-74
2021/12/26 00:25:18;;;;;;;16.67;12.38;;;;;;;-13.81;69.89;98892.91;5077028;28;20115;-72
2021/12/26 00:27:44;;;;;;;14.67;10.63;;;;;;;-13.65;69.80;98939.22;5094678;28;20035;-72
2021/12/26 00:30:13;;;;;;;15.90;10.00;;;;;;;-13.81;70.42;98921.06;5095078;28;20622;-72
2021/12/26 00:32:39;;;;;;;14.90;10.38;;;;;;;-13.83;70.31;98941.56;5094992;28;20047;-73
2021/12/26 00:35:06;;;;;;;19.50;10.37;;;;;;;-14.10;69.90;98907.59;5094063;28;20036;-74
2021/12/26 00:37:32;;;;;;;18.13;11.35;;;;;;;-14.11;70.63;98918.72;5094976;28;20301;-71
2021/12/26 00:39:57;;;;;;;14.33;9.53;;;;;;;-14.11;71.03;98928.94;5093410;28;20052;-71
2021/12/26 00:42:23;;;;;;;13.80;9.03;;;;;;;-14.32;71.23;98918.63;5094941;28;20142;-73
2021/12/26 00:44:48;;;;;;;16.13;11.00;;;;;;;-14.32;71.12;98922.00;5094339;28;20395;-72
2021/12/26 00:47:14;;;;;;;16.80;11.63;;;;;;;-14.25;71.80;98927.75;5094558;28;20031;-76
2021/12/26 00:49:40;;;;;;;17.57;10.77;;;;;;;-14.33;71.28;98914.41;5093985;28;20494;-73
2021/12/26 00:52:07;;;;;;;18.42;9.68;;;;;;;-14.28;71.73;98927.84;5094159;28;20032;-75
2021/12/26 00:54:32;;;;;;;19.08;11.25;;;;;;;-14.25;71.33;98933.69;5095241;28;20125;-72
2021/12/26 00:56:58;;;;;;;18.90;11.10;;;;;;;-14.24;71.42;98955.81;5095160;28;20066;-75
2021/12/26 00:59:25;;;;;;;12.23;9.97;;;;;;;-14.34;71.31;98922.97;5093353;28;20068;-75
2021/12/26 01:01:51;;;;;;;15.93;10.73;;;;;;;-14.15;71.13;98955.53;5096727;28;20047;-74
2021/12/26 01:04:17;;;;;;;14.57;10.43;;;;;;;-14.38;71.17;98922.22;5093921;28;20129;-74
2021/12/26 01:06:43;;;;;;;18.13;11.37;;;;;;;-14.27;71.32;98932.06;5094377;28;20028;-74
2021/12/26 01:09:12;;;;;;;16.33;9.45;;;;;;;-14.16;71.67;98932.56;5094478;28;20032;-74
2021/12/26 01:11:42;;;;;;;16.70;11.83;;;;;;;-14.15;70.93;98944.44;5094651;28;20081;-71
2021/12/26 01:14:12;;;;;;;13.98;10.32;;;;;;;-14.41;71.34;98932.56;5092687;28;20266;-72
2021/12/26 01:16:39;;;;;;;13.65;10.45;;;;;;;-14.30;71.60;98952.63;5094652;28;20483;-76
2021/12/26 01:19:11;;;;;;;12.55;9.90;;;;;;;-14.33;71.94;98953.59;5094643;28;20035;-74
2021/12/26 01:21:37;;;;;;;18.55;10.75;;;;;;;-14.23;71.72;98956.66;5093226;28;20074;-73
2021/12/26 01:24:10;;;;;;;16.77;11.07;;;;;;;-14.17;71.46;98951.31;5094089;28;20425;-75
2021/12/26 01:26:37;;;;;;;12.10;10.65;;;;;;;-14.00;71.14;98971.19;5094094;28;20165;-73
2021/12/26 01:29:04;;;;;;;14.13;11.68;;;;;;;-14.10;70.85;98943.41;5093620;28;20032;-74
2021/12/26 01:31:30;;;;;;;15.80;12.25;;;;;;;-14.00;70.14;98964.38;5093040;28;20139;-76
2021/12/26 01:34:03;;;;;;;18.27;12.80;;;;;;;-14.05;70.65;98960.31;5094087;28;20040;-73
2021/12/26 01:36:30;;;;;;;18.63;12.70;;;;;;;-13.98;70.54;98980.50;5093898;28;20032;-77
2021/12/26 01:39:00;;;;;;;15.77;10.00;;;;;;;-14.00;70.56;98976.31;5091708;28;20530;-75
2021/12/26 01:41:27;;;;;;;15.77;10.40;;;;;;;-14.00;70.06;98978.88;5094194;28;20048;-76
2021/12/26 01:43:57;;;;;;;23.67;10.32;;;;;;;-14.12;70.27;98978.44;5093179;28;20078;-74
2021/12/26 01:46:25;;;;;;;17.23;10.57;;;;;;;-14.13;70.48;98987.00;5094044;28;20036;-73
2021/12/26 01:49:26;;;;;;;16.88;9.85;;;;;;;-14.10;71.33;98996.28;5092459;28;20040;-76
2021/12/26 01:51:53;;;;;;;11.68;9.63;;;;;;;-14.18;70.78;98985.44;5039266;28;20043;-74
2021/12/26 01:57:10;;;;;;;16.85;9.45;;;;;;;-14.33;70.68;98994.50;5094884;28;20027;-78
2021/12/26 01:59:36;;;;;;;11.45;8.25;;;;;;;-14.49;70.51;99001.03;5093666;28;20097;-73
2021/12/26 02:02:02;;;;;;;10.52;8.82;;;;;;;-14.74;70.51;99014.63;5093787;28;20032;-72
2021/12/26 02:04:28;;;;;;;9.90;8.67;;;;;;;-14.79;70.83;99013.91;5093664;28;20407;-76
2021/12/26 02:06:59;;;;;;;14.02;8.32;;;;;;;-14.93;70.72;99000.72;5093436;28;20031;-73
2021/12/26 02:09:24;;;;;;;10.73;8.20;;;;;;;-14.99;70.14;99000.94;5093467;28;20479;-75
2021/12/26 02:11:50;;;;;;;12.53;8.60;;;;;;;-14.97;70.57;99022.16;5093667;28;20126;-73
2021/12/26 02:14:16;;;;;;;9.60;7.93;;;;;;;-14.87;70.52;99027.81;5093322;28;20173;-73
2021/12/26 02:16:42;;;;;;;12.40;7.82;;;;;;;-14.92;69.76;99033.06;5093160;28;20090;-72
2021/12/26 02:19:07;;;;;;;9.10;7.27;;;;;;;-14.95;69.43;99048.47;5091879;28;20090;-73
2021/12/26 02:24:25;;;;;;;9.27;7.60;;;;;;;-15.13;70.02;99039.63;5093076;28;20066;-73
2021/12/26 02:29:39;;;;;;;7.55;6.85;;;;;;;-15.38;69.44;99039.50;5094617;28;20077;-72
2021/12/26 02:32:05;;;;;;;15.57;7.60;;;;;;;-15.40;69.46;99063.41;5093720;28;20122;-75
2021/12/26 02:34:30;;;;;;;11.95;8.95;;;;;;;-15.43;69.60;99071.16;5093768;28;20036;-77
2021/12/26 02:36:56;;;;;;;11.17;7.97;;;;;;;-15.44;69.52;99080.53;5093435;28;20040;-71
2021/12/26 02:39:25;;;;;;;10.97;7.37;;;;;;;-15.50;69.38;99062.84;5105488;28;20138;-76
2021/12/26 02:41:50;;;;;;;;;;;;;;;-15.30;69.66;99081.88;5113670;28;20043;-71
2021/12/26 02:44:16;;;;;;;11.27;7.67;;;;;;;-15.68;69.12;99035.31;5095673;28;20022;-76
2021/12/26 02:46:41;;;;;;;8.70;7.90;;;;;;;-15.54;69.20;99052.78;5114312;28;20038;-76
2021/12/26 02:49:08;;;;;;;8.63;7.73;;;;;;;-15.37;69.22;99079.47;5114272;28;20187;-78
2021/12/26 02:51:33;;;;;;;12.63;7.53;;;;;;;-15.47;68.72;99069.56;5114518;28;20032;-71
2021/12/26 02:53:59;;;;;;;9.50;7.53;;;;;;;-15.40;69.08;99092.31;5113931;28;20398;-74
2021/12/26 02:56:25;;;;;;;8.37;7.50;;;;;;;-15.53;68.85;99075.69;5095544;28;20032;-76
2021/12/26 02:58:50;;;;;;;9.97;8.33;;;;;;;-15.51;69.00;99093.50;5113718;28;20202;-74
2021/12/26 03:01:22;;;;;;;7.30;6.23;;;;;;;-15.51;69.21;99108.81;5114049;28;20035;-71
2021/12/26 03:03:48;;;;;;;10.05;7.93;;;;;;;-15.61;68.89;99092.97;5095925;28;20474;-77
2021/12/26 03:06:30;;;;;;;8.73;7.83;;;;;;;-15.55;68.48;99123.38;5114464;28;20046;-75
2021/12/26 03:08:56;;;;;;;12.00;9.43;;;;;;;-15.79;68.33;99093.44;5095903;28;20117;-75
2021/12/26 03:11:22;;;;;;;15.75;8.27;;;;;;;-15.64;68.79;99118.53;5114130;28;20102;-75
2021/12/26 03:13:48;;;;;;;8.65;7.55;;;;;;;-15.70;69.00;99124.66;5114637;28;20036;-72
2021/12/26 03:16:14;;;;;;;8.30;6.53;;;;;;;-15.86;68.49;99104.69;5114335;28;20046;-76
2021/12/26 03:18:39;;;;;;;10.35;7.93;;;;;;;-15.73;68.14;99134.09;5113792;28;20383;-72
2021/12/26 03:21:05;;;;;;;8.93;7.27;;;;;;;-15.75;67.96;99131.59;5114039;28;20042;-72
2021/12/26 03:23:31;;;;;;;8.30;7.50;;;;;;;-15.82;68.12;99122.44;5113746;28;20036;-72
2021/12/26 03:25:59;;;;;;;6.63;5.97;;;;;;;-15.86;67.72;99137.84;5096171;28;20039;-74
2021/12/26 03:28:26;;;;;;;9.60;7.78;;;;;;;-16.03;67.75;99116.16;5114254;28;20982;-72
2021/12/26 03:30:53;;;;;;;11.30;6.93;;;;;;;-15.98;67.24;99144.06;5114037;28;20035;-73
2021/12/26 03:33:19;;;;;;;9.52;6.85;;;;;;;-16.15;67.78;99136.84;5114019;28;20027;-72
2021/12/26 03:35:45;;;;;;;9.82;7.13;;;;;;;-16.21;67.63;99136.13;5113965;28;20436;-74
2021/12/26 03:38:14;;;;;;;8.27;7.37;;;;;;;-16.11;67.93;99147.81;5113324;28;20104;-73
2021/12/26 03:40:39;;;;;;;7.55;6.53;;;;;;;-16.06;67.46;99164.66;5114152;28;20285;-71
2021/12/26 03:43:06;;;;;;;8.97;6.67;;;;;;;-16.06;67.72;99167.22;5096353;28;20505;-70
2021/12/26 03:45:33;;;;;;;9.48;6.57;;;;;;;-16.15;67.77;99162.34;5096897;28;20145;-77
2021/12/26 03:47:58;;;;;;;7.65;6.75;;;;;;;-16.27;67.88;99149.88;5113344;28;20461;-74
2021/12/26 03:50:27;;;;;;;7.23;6.33;;;;;;;-16.35;68.10;99139.88;5113625;28;20024;-74
2021/12/26 03:52:56;;;;;;;8.27;6.07;;;;;;;-16.25;67.60;99157.47;5113947;28;20502;-73
2021/12/26 03:55:24;;;;;;;9.73;8.15;;;;;;;-16.17;67.82;99181.94;5062398;28;20269;-74
2021/12/26 03:57:49;;;;;;;7.40;6.47;;;;;;;-16.39;67.95;99145.06;5112898;28;20036;-75
2021/12/26 04:00:15;;;;;;;9.13;7.03;;;;;;;-16.18;68.04;99182.81;5113361;28;20490;-75
2021/12/26 04:02:42;;;;;;;8.27;5.75;;;;;;;-16.15;67.86;99187.84;5097562;28;20074;-73
2021/12/26 04:05:08;;;;;;;8.68;7.65;;;;;;;-16.53;67.53;99130.09;5116496;28;20091;-75
2021/12/26 04:07:34;;;;;;;8.43;6.63;;;;;;;-16.35;67.61;99169.63;5116793;28;20108;-77
2021/12/26 04:10:00;;;;;;;7.63;6.87;;;;;;;-16.23;67.33;99187.16;5116468;28;20079;-73
2021/12/26 04:12:25;;;;;;;6.87;6.10;;;;;;;-16.38;67.35;99196.00;5116627;28;20081;-73
2021/12/26 04:14:51;;;;;;;7.20;6.23;;;;;;;-16.41;67.45;99202.88;5098684;28;20036;-76
2021/12/26 04:17:16;;;;;;;6.90;6.03;;;;;;;-16.69;67.05;99175.50;5099493;28;20470;-72
2021/12/26 04:19:42;;;;;;;6.30;5.63;;;;;;;-16.78;67.04;99165.47;5099156;28;20035;-76
2021/12/26 04:22:08;;;;;;;6.03;5.60;;;;;;;-16.63;67.02;99205.88;5117149;28;20036;-77
2021/12/26 04:24:34;;;;;;;5.72;5.18;;;;;;;-16.66;66.54;99216.19;5115889;28;20061;-73
2021/12/26 04:27:00;;;;;;;10.65;6.30;;;;;;;-16.80;65.89;99207.97;5097460;28;20027;-74
2021/12/26 04:29:26;;;;;;;6.83;6.30;;;;;;;-16.95;65.20;99219.31;5115912;28;20048;-72
2021/12/26 04:31:51;;;;;;;6.37;5.73;;;;;;;-17.29;65.89;99193.69;5097262;28;20035;-73
2021/12/26 04:34:17;;;;;;;5.93;5.43;;;;;;;-17.18;66.23;99225.72;5115759;28;20035;-72
2021/12/26 04:36:42;;;;;;;7.00;6.30;;;;;;;-17.26;66.01;99219.06;5116468;28;20036;-72
2021/12/26 04:39:12;;;;;;;8.07;6.27;;;;;;;-18.23;65.83;99074.19;5117767;28;20047;-72
2021/12/26 04:41:37;;;;;;;6.25;5.65;;;;;;;-17.46;65.80;99218.59;5118280;28;20041;-73
2021/12/26 04:44:03;;;;;;;6.87;5.47;;;;;;;-17.72;65.65;99218.22;5115611;28;20078;-74
2021/12/26 04:46:29;;;;;;;12.43;6.43;;;;;;;-17.76;66.09;99224.22;5097056;28;20561;-73
2021/12/26 04:48:54;;;;;;;6.33;5.83;;;;;;;-17.79;65.28;99239.53;5115264;28;20091;-76
2021/12/26 04:51:20;;;;;;;6.57;6.03;;;;;;;-17.64;65.27;99262.13;5115305;28;20036;-73
2021/12/26 04:53:46;;;;;;;6.50;5.43;;;;;;;-17.77;65.55;99245.44;5115242;28;20039;-72
2021/12/26 04:56:11;;;;;;;6.93;5.50;;;;;;;-17.74;65.69;99258.94;5097018;28;20468;-75
2021/12/26 04:58:37;;;;;;;6.27;5.70;;;;;;;-18.05;65.57;99217.91;5115326;28;20057;-72
2021/12/26 05:01:04;;;;;;;6.50;6.00;;;;;;;-17.81;65.18;99271.78;5115340;28;20071;-73
2021/12/26 05:03:30;;;;;;;9.80;5.25;;;;;;;-17.89;65.34;99254.94;5115088;28;20059;-75
2021/12/26 05:05:56;;;;;;;7.28;5.70;;;;;;;-17.87;65.41;99276.09;5115289;28;20062;-74
2021/12/26 05:08:21;;;;;;;6.15;5.65;;;;;;;-18.14;64.74;99230.75;5115603;28;20169;-73
2021/12/26 05:10:47;;;;;;;5.40;5.00;;;;;;;-17.79;64.22;99287.84;5096539;28;20031;-75
2021/12/26 05:13:12;;;;;;;5.77;5.47;;;;;;;-17.98;64.55;99282.19;5114903;28;20039;-71
2021/12/26 05:15:38;;;;;;;5.37;4.97;;;;;;;-18.05;63.94;99296.69;5114538;28;20035;-74
2021/12/26 05:18:05;;;;;;;6.18;5.60;;;;;;;-18.28;63.68;99265.69;5114666;28;20032;-77
2021/12/26 05:20:31;;;;;;;4.75;4.45;;;;;;;-19.17;63.20;99142.50;5115293;28;20027;-72
2021/12/26 05:22:57;;;;;;;7.33;5.97;;;;;;;-19.21;62.98;99150.16;5097092;28;20502;-72
2021/12/26 05:25:23;;;;;;;5.80;5.40;;;;;;;-18.36;63.07;99295.44;5096624;28;20262;-74
2021/12/26 05:27:51;;;;;;;4.85;4.50;;;;;;;-18.64;62.90;99264.50;5114804;28;20036;-74
2021/12/26 05:30:42;;;;;;;5.70;5.30;;;;;;;-18.56;62.54;99293.97;5115336;28;20050;-73
2021/12/26 05:33:07;;;;;;;5.80;5.30;;;;;;;-18.75;62.77;99297.66;5096041;28;20048;-75
2021/12/26 05:35:33;;;;;;;6.67;6.27;;;;;;;-18.82;62.25;99298.56;5114545;28;20040;-75
2021/12/26 05:38:01;;;;;;;5.55;5.15;;;;;;;-18.86;62.99;99314.69;5097048;28;20035;-73
2021/12/26 05:40:28;;;;;;;6.97;5.57;;;;;;;-19.04;62.90;99333.50;5114304;28;20039;-72
2021/12/26 05:42:53;;;;;;;7.60;6.22;;;;;;;-19.08;62.80;99334.34;5114104;28;20050;-77
2021/12/26 05:45:19;;;;;;;5.17;4.77;;;;;;;-19.19;62.92;99341.22;5114451;28;20035;-73
2021/12/26 05:47:45;;;;;;;6.73;6.23;;;;;;;-19.16;63.22;99353.88;5114940;28;20036;-76
2021/12/26 05:50:15;;;;;;;5.87;5.37;;;;;;;-19.60;63.08;99311.22;5114787;28;20261;-73
2021/12/26 05:52:41;;;;;;;6.50;6.00;;;;;;;-19.58;62.98;99333.16;5096734;28;20039;-73
2021/12/26 05:55:08;;;;;;;6.95;6.30;;;;;;;-19.64;63.67;99342.50;5114464;28;20118;-73
2021/12/26 05:57:34;;;;;;;7.57;6.97;;;;;;;-19.58;64.00;99361.03;5114240;28;20607;-74
2021/12/26 05:59:59;;;;;;;5.88;5.43;;;;;;;-19.70;64.01;99333.22;5096075;28;20394;-76
2021/12/26 06:02:25;;;;;;;5.70;5.30;;;;;;;-19.59;63.63;99366.13;5096460;28;20474;-72
2021/12/26 06:04:51;;;;;;;6.70;6.20;;;;;;;-19.72;63.56;99350.16;5114317;28;20039;-74
2021/12/26 06:07:17;;;;;;;6.73;6.07;;;;;;;-19.67;64.00;99372.91;5115691;28;20032;-73
2021/12/26 06:09:42;;;;;;;6.60;5.95;;;;;;;-19.73;64.58;99372.97;5097016;28;20035;-72
2021/12/26 06:12:09;;;;;;;7.20;5.97;;;;;;;-19.82;64.09;99354.44;5097912;28;20047;-75
2021/12/26 06:14:34;;;;;;;7.32;6.65;;;;;;;-19.72;64.58;99369.56;5115311;28;20089;-73
2021/12/26 06:20:54;;;;;;;8.15;6.47;;;;;;;-20.11;64.50;99325.91;4995466;28;20164;-74
2021/12/26 06:23:19;;;;;;;6.43;5.88;;;;;;;-19.94;64.57;99362.13;5047059;28;20047;-71
2021/12/26 06:25:45;;;;;;;5.97;5.50;;;;;;;-19.77;64.83;99393.25;5095470;28;20043;-73
2021/12/26 06:28:10;;;;;;;6.07;5.57;;;;;;;-19.73;64.53;99394.09;5114048;28;20088;-72
2021/12/26 06:30:36;;;;;;;10.10;7.53;;;;;;;-19.71;65.31;99394.06;5095524;28;20105;-75
2021/12/26 06:33:02;;;;;;;5.93;5.30;;;;;;;-19.61;64.64;99393.19;5113851;28;20553;-75
2021/12/26 06:35:28;;;;;;;6.20;5.60;;;;;;;-19.60;64.52;99398.25;5113702;28;20066;-75
2021/12/26 06:37:54;;;;;;;7.93;7.23;;;;;;;-19.54;64.37;99415.09;5113375;28;20111;-72
2021/12/26 06:40:21;;;;;;;7.40;6.90;;;;;;;-20.38;64.84;99282.16;5112546;28;20047;-67
2021/12/26 06:42:49;;;;;;;5.85;5.40;;;;;;;-19.56;64.89;99410.03;5112552;28;20452;-70
2021/12/26 06:45:17;;;;;;;7.32;6.68;;;;;;;-19.51;64.24;99404.91;5112642;28;20035;-68
2021/12/26 06:47:49;;;;;;;6.70;6.10;;;;;;;-19.85;63.56;99363.75;5112529;28;20035;-70
2021/12/26 06:50:15;;;;;;;6.50;6.00;;;;;;;-19.53;63.57;99426.91;5112663;28;20044;-68
2021/12/26 06:52:41;;;;;;;7.13;6.53;;;;;;;-19.57;63.40;99428.63;5112607;28;20043;-66
2021/12/26 06:55:08;;;;;;;9.55;6.63;;;;;;;-19.70;63.36;99416.88;5112980;28;20416;-67
2021/12/26 06:57:34;;;;;;;9.10;5.82;;;;;;;-20.04;63.79;99382.44;5112007;28;20108;-69
2021/12/26 06:59:59;;;;;;;7.13;6.13;;;;;;;-19.91;63.57;99417.00;5112751;28;20482;-66
2021/12/26 07:02:25;;;;;;;7.03;6.43;;;;;;;-19.86;64.10;99438.09;5112551;28;20036;-68
2021/12/26 07:04:50;;;;;;;9.57;8.20;;;;;;;-19.87;64.24;99455.00;5112098;28;20040;-67
2021/12/26 07:07:16;;;;;;;9.37;8.47;;;;;;;-19.95;64.25;99441.50;5112323;28;20035;-70
2021/12/26 07:09:43;;;;;;;7.37;6.67;;;;;;;-19.86;64.46;99454.16;5112552;28;20036;-71
2021/12/26 07:12:10;;;;;;;8.88;7.43;;;;;;;-20.08;64.48;99401.88;5112229;28;20031;-72
2021/12/26 07:14:36;;;;;;;13.13;7.80;;;;;;;-19.85;64.38;99442.31;5111883;28;20069;-70
2021/12/26 07:17:01;;;;;;;7.40;6.73;;;;;;;-19.70;64.11;99459.97;5111764;28;20039;-69
2021/12/26 07:19:30;;;;;;;7.73;7.03;;;;;;;-19.86;64.18;99438.94;5094165;28;20039;-67
2021/12/26 07:21:55;;;;;;;7.38;6.57;;;;;;;-19.66;63.81;99492.03;5112507;28;20043;-70
2021/12/26 07:24:24;;;;;;;6.67;6.20;;;;;;;-19.68;64.30;99488.69;5094121;28;20030;-66
2021/12/26 07:26:49;;;;;;;7.70;7.10;;;;;;;-19.62;63.77;99497.97;5111959;28;20486;-66
2021/12/26 07:29:18;;;;;;;7.17;6.47;;;;;;;-19.68;63.95;99487.84;5093868;28;20262;-64
2021/12/26 07:31:44;;;;;;;11.40;7.13;;;;;;;-19.68;64.25;99498.81;5077098;28;20108;-66
2021/12/26 07:34:09;;;;;;;6.60;6.00;;;;;;;-19.65;63.80;99505.59;5093985;28;20039;-66
2021/12/26 07:36:35;;;;;;;7.10;6.37;;;;;;;-19.95;63.62;99461.75;5113215;28;20032;-67
2021/12/26 07:39:02;;;;;;;6.90;6.27;;;;;;;-19.64;63.30;99512.34;5080164;28;20155;-68
2021/12/26 07:41:28;;;;;;;7.65;6.85;;;;;;;-19.61;63.78;99514.88;5115559;28;20054;-67
2021/12/26 07:43:54;;;;;;;8.63;6.82;;;;;;;-19.48;63.50;99521.50;5115170;28;20414;-67
2021/12/26 07:46:20;;;;;;;6.57;6.00;;;;;;;-19.40;63.62;99519.78;5114268;28;20040;-67
2021/12/26 07:48:45;;;;;;;9.17;8.30;;;;;;;-19.31;62.88;99514.66;5114387;28;20032;-65
2021/12/26 07:51:11;;;;;;;7.63;6.83;;;;;;;-19.16;63.24;99518.78;5115688;28;20035;-66
2021/12/26 07:53:36;;;;;;;7.03;6.43;;;;;;;-19.06;63.05;99505.22;5115329;28;20038;-62
2021/12/26 07:56:02;;;;;;;7.83;7.23;;;;;;;-19.09;62.18;99479.81;5115058;28;20035;-66
2021/12/26 07:58:28;;;;;;;9.93;7.07;;;;;;;-18.90;62.20;99505.91;5114977;28;20039;-67
2021/12/26 08:00:53;;;;;;;6.73;5.77;;;;;;;-18.66;62.48;99505.72;5115308;28;20039;-65
2021/12/26 08:03:22;;;;;;;7.53;6.43;;;;;;;-18.59;62.06;99517.47;5115403;28;20036;-67
2021/12/26 08:05:48;;;;;;;12.55;7.10;;;;;;;-18.95;61.33;99464.50;5097045;28;20501;-66
2021/12/26 08:08:13;;;;;;;7.27;6.57;;;;;;;-18.62;61.93;99537.84;5115642;28;20059;-64
2021/12/26 08:10:39;;;;;;;7.20;5.93;;;;;;;-18.70;61.91;99528.63;5116029;28;20266;-63
2021/12/26 08:13:05;;;;;;;8.70;7.82;;;;;;;-18.88;61.31;99534.66;5114943;28;20032;-64
2021/12/26 08:15:36;;;;;;;7.33;6.57;;;;;;;-18.87;62.21;99531.28;5115470;28;20032;-67
2021/12/26 08:18:04;;;;;;;7.90;6.60;;;;;;;-18.93;62.33;99521.19;5096921;28;20047;-65
2021/12/26 08:20:30;;;;;;;7.82;6.53;;;;;;;-18.81;62.08;99533.75;5115033;28;20054;-65
2021/12/26 08:22:57;;;;;;;6.50;5.90;;;;;;;-18.61;62.43;99539.50;5115176;28;20495;-68
2021/12/26 08:25:26;;;;;;;9.15;6.85;;;;;;;-18.87;62.27;99516.03;5115795;28;20062;-67
2021/12/26 08:27:52;;;;;;;7.10;6.27;;;;;;;-18.44;62.54;99556.31;5097411;28;20498;-66
2021/12/26 08:30:17;;;;;;;6.43;4.87;;;;;;;-18.40;61.70;99550.34;5117151;28;20514;-66
2021/12/26 08:32:50;;;;;;;7.00;6.47;;;;;;;-18.62;62.07;99532.78;5115270;28;20043;-69
2021/12/26 08:35:16;;;;;;;8.57;6.80;;;;;;;-18.47;62.24;99563.97;5114651;28;20050;-68
2021/12/26 08:37:42;;;;;;;12.90;8.27;;;;;;;-18.52;62.53;99561.44;5114760;28;20027;-64
2021/12/26 08:40:18;;;;;;;7.80;5.40;;;;;;;-18.56;62.74;99559.78;5092905;28;20572;-70
2021/12/26 08:42:44;;;;;;;9.30;6.85;;;;;;;-18.45;63.04;99570.72;5094762;28;20040;-72
2021/12/26 08:45:10;;;;;;;7.03;5.67;;;;;;;-18.34;62.29;99570.59;5094614;28;20431;-76
2021/12/26 08:47:37;;;;;;;11.60;5.90;;;;;;;-18.34;62.42;99580.78;5093059;28;20035;-68
2021/12/26 08:50:04;;;;;;;7.28;6.55;;;;;;;-18.28;62.79;99585.78;5094045;28;20097;-70
2021/12/26 08:52:29;;;;;;;6.95;6.20;;;;;;;-18.24;62.47;99589.97;5094639;28;20028;-68
2021/12/26 08:54:55;;;;;;;7.33;6.60;;;;;;;-18.28;62.26;99568.00;5076214;28;20040;-65
2021/12/26 08:57:20;;;;;;;6.00;5.60;;;;;;;-18.37;62.36;99552.84;5094447;28;20055;-66
2021/12/26 08:59:46;;;;;;;5.67;5.20;;;;;;;-18.17;62.95;99593.34;5092830;28;20127;-67
2021/12/26 09:02:11;;;;;;;5.73;5.23;;;;;;;-18.21;62.36;99584.91;5094212;28;20085;-72
2021/12/26 09:04:45;;;;;;;6.03;5.53;;;;;;;-18.19;62.35;99584.03;5094263;28;20044;-72
2021/12/26 09:07:11;;;;;;;5.60;5.20;;;;;;;-18.06;62.48;99607.63;5093699;28;20043;-69
2021/12/26 09:09:37;;;;;;;7.27;5.57;;;;;;;-18.03;62.16;99601.66;5093523;28;20073;-66
2021/12/26 09:12:03;;;;;;;7.00;6.47;;;;;;;-17.98;62.35;99603.31;5092187;28;20032;-65
2021/12/26 09:14:29;;;;;;;16.42;6.15;;;;;;;-17.98;61.90;99594.84;5093705;28;20423;-71
2021/12/26 09:16:56;;;;;;;8.32;6.97;;;;;;;-17.92;62.75;99598.19;5093031;28;20044;-71
2021/12/26 09:19:23;;;;;;;6.55;5.93;;;;;;;-17.74;63.24;99617.47;5092059;28;20123;-69
2021/12/26 09:21:49;;;;;;;5.95;5.15;;;;;;;-17.91;63.02;99594.78;5076001;28;20093;-73
2021/12/26 09:24:15;;;;;;;14.45;7.18;;;;;;;-17.93;63.36;99616.81;5095767;28;20089;-74
2021/12/26 09:26:40;;;;;;;6.70;6.00;;;;;;;-18.12;64.08;99564.47;5094949;28;20047;-72
2021/12/26 09:29:06;;;;;;;6.67;6.07;;;;;;;-17.74;64.02;99593.75;5093497;28;20042;-70
2021/12/26 09:31:31;;;;;;;12.93;6.67;;;;;;;-17.47;64.92;99611.22;5094235;28;20043;-74
2021/12/26 09:34:00;;;;;;;8.27;6.33;;;;;;;-17.47;63.70;99601.03;5093600;28;20520;-76
2021/12/26 09:36:28;;;;;;;6.60;6.00;;;;;;;-17.43;63.86;99592.50;5093887;28;20086;-72
2021/12/26 09:38:55;;;;;;;6.80;6.18;;;;;;;-17.18;63.99;99607.50;5077282;28;20063;-81
2021/12/26 09:41:21;;;;;;;7.05;6.20;;;;;;;-17.21;63.17;99602.44;5092911;28;20135;-75
2021/12/26 09:43:47;;;;;;;7.95;5.28;;;;;;;-17.05;63.63;99619.22;5092458;28;20047;-72
2021/12/26 09:46:13;;;;;;;6.73;6.03;;;;;;;-17.03;63.32;99609.84;5092638;28;20039;-73
2021/12/26 09:48:38;;;;;;;6.57;6.07;;;;;;;-17.13;63.20;99581.09;5092386;28;20039;-67
2021/12/26 09:51:04;;;;;;;5.93;4.97;;;;;;;-17.02;63.15;99593.72;5090223;28;20494;-66
2021/12/26 09:53:37;;;;;;;8.20;5.40;;;;;;;-16.97;62.63;99599.59;5092910;28;20032;-65
2021/12/26 09:56:03;;;;;;;9.80;6.05;;;;;;;-16.87;62.70;99602.84;5093113;28;20123;-64
2021/12/26 09:58:29;;;;;;;6.80;5.97;;;;;;;-16.81;62.61;99603.59;5092147;28;20036;-64
2021/12/26 10:00:54;;;;;;;5.97;5.47;;;;;;;-16.79;63.04;99594.22;5092193;28;20032;-67
2021/12/26 10:03:22;;;;;;;6.43;5.70;;;;;;;-16.79;62.67;99604.41;5091106;28;20425;-69
2021/12/26 10:05:55;;;;;;;7.30;6.60;;;;;;;-16.68;63.29;99625.50;5090939;28;20088;-67
2021/12/26 10:08:21;;;;;;;7.75;5.50;;;;;;;-17.09;62.88;99561.53;5091987;28;20036;-70
2021/12/26 10:11:08;;;;;;;8.20;6.80;;;;;;;-16.73;63.33;99611.13;5092850;28;20032;-69
2021/12/26 10:13:52;;;;;;;6.30;5.68;;;;;;;-16.88;63.14;99617.28;5092239;28;20114;-65
2021/12/26 10:16:21;;;;;;;6.10;5.57;;;;;;;-17.07;63.59;99600.53;5072123;28;20051;-68
2021/12/26 10:18:47;;;;;;;6.80;6.05;;;;;;;-16.93;63.76;99604.59;5072003;28;20401;-72
2021/12/26 10:21:32;;;;;;;5.95;5.55;;;;;;;-16.77;63.33;99633.25;5071783;28;20048;-69
2021/12/26 10:24:11;;;;;;;9.57;5.63;;;;;;;-16.75;64.00;99623.91;5072149;28;20044;-68
2021/12/26 10:26:42;;;;;;;7.15;6.45;;;;;;;-16.66;64.04;99628.00;5072126;28;20036;-74
2021/12/26 10:29:12;;;;;;;6.90;6.30;;;;;;;-16.70;63.74;99601.75;5073012;28;20039;-67
2021/12/26 10:31:47;;;;;;;9.13;6.85;;;;;;;-16.64;64.59;99616.06;5072666;28;20028;-74
2021/12/26 10:34:23;;;;;;;7.55;6.82;;;;;;;-16.80;64.77;99602.72;5072570;28;20120;-74
2021/12/26 10:36:52;;;;;;;6.53;5.93;;;;;;;-16.64;64.54;99636.44;5072560;28;20032;-67
2021/12/26 10:39:24;;;;;;;7.70;6.95;;;;;;;-16.76;63.88;99632.41;5087697;28;20048;-67
2021/12/26 10:41:53;;;;;;;5.63;5.10;;;;;;;-16.62;64.67;99635.56;5087703;28;20411;-63
2021/12/26 10:44:41;;;;;;;8.45;6.50;;;;;;;-16.57;64.48;99643.13;5072869;28;20483;-72
2021/12/26 10:47:10;;;;;;;6.35;5.55;;;;;;;-17.35;64.65;99516.91;5077938;28;20126;-78
2021/12/26 10:49:43;;;;;;;7.97;6.25;;;;;;;-16.50;64.37;99651.50;5093345;28;20032;-72
2021/12/26 10:52:18;;;;;;;9.57;6.13;;;;;;;-16.52;64.38;99648.16;5093022;28;20106;-74
2021/12/26 10:54:49;;;;;;;9.75;6.80;;;;;;;-16.52;64.89;99656.63;5094302;28;20505;-75
2021/12/26 10:57:19;;;;;;;7.50;6.80;;;;;;;-16.56;63.99;99664.34;5094273;28;20028;-75
2021/12/26 10:59:48;;;;;;;6.75;6.15;;;;;;;-16.67;65.05;99657.75;5093488;28;20051;-74
2021/12/26 11:02:23;;;;;;;6.78;5.93;;;;;;;-16.64;65.14;99652.56;5094568;28;20105;-75
2021/12/26 11:05:14;;;;;;;8.75;7.97;;;;;;;-16.52;65.16;99660.88;5093748;28;20040;-75
2021/12/26 11:07:51;;;;;;;12.73;6.85;;;;;;;-16.50;65.00;99669.34;5093149;28;20044;-77
2021/12/26 11:10:21;;;;;;;10.70;6.85;;;;;;;-16.47;64.59;99670.19;5092954;28;20032;-76
2021/12/26 11:12:51;;;;;;;7.82;6.10;;;;;;;-16.43;64.33;99673.53;5096613;28;20514;-73
2021/12/26 11:15:19;;;;;;;12.73;8.13;;;;;;;-16.50;64.47;99669.34;5096673;28;20049;-73
2021/12/26 11:17:53;;;;;;;7.80;5.93;;;;;;;-16.87;64.75;99623.22;5096246;28;20040;-74
2021/12/26 11:20:30;;;;;;;7.03;6.32;;;;;;;-16.61;65.38;99672.91;5097187;28;20134;-76
2021/12/26 11:22:58;;;;;;;8.05;6.13;;;;;;;-16.68;65.23;99680.69;5096557;28;20082;-77
2021/12/26 11:25:24;;;;;;;6.82;6.10;;;;;;;-16.66;65.33;99689.16;5096511;28;20127;-74
2021/12/26 11:27:53;;;;;;;7.90;6.90;;;;;;;-17.31;65.24;99592.38;5096831;28;20514;-75
2021/12/26 11:30:20;;;;;;;10.90;7.82;;;;;;;-16.81;65.54;99669.81;5096903;28;20065;-74
2021/12/26 11:32:46;;;;;;;5.07;4.75;;;;;;;-16.73;65.07;99692.66;5096130;28;20047;-76
2021/12/26 11:35:13;;;;;;;10.40;7.82;;;;;;;-16.79;65.78;99688.44;5095485;28;20116;-76
2021/12/26 11:37:40;;;;;;;11.00;8.75;;;;;;;-16.86;65.91;99668.19;5095353;28;20460;-80
2021/12/26 11:40:12;;;;;;;9.27;7.30;;;;;;;-16.75;66.19;99687.56;5115008;28;20051;-79
2021/12/26 11:42:59;;;;;;;15.80;9.43;;;;;;;-16.54;66.01;99719.50;5116315;28;20050;-79